TimeCDT,TemperatureF,Dew PointF,Humidity,Sea Level PressureIn,VisibilityMPH,Wind Direction,Wind SpeedMPH,Gust SpeedMPH,PrecipitationIn,Events,Conditions,WindDirDegrees,DateUTC
12:53 AM,55.0,52.0,89,30.06,10.0,Calm,Calm,-,N/A,,Clear,0,2013-07-25 05:53:00
1:53 AM,54.0,52.0,93,30.05,10.0,Calm,Calm,-,N/A,,Clear,0,2013-07-25 06:53:00
2:53 AM,54.0,52.0,93,30.06,10.0,Calm,Calm,-,N/A,,Clear,0,2013-07-25 07:53:00
3:53 AM,53.1,51.1,93,30.06,10.0,Calm,Calm,-,N/A,,Clear,0,2013-07-25 08:53:00
4:53 AM,52.0,50.0,93,30.07,10.0,Calm,Calm,-,N/A,,Clear,0,2013-07-25 09:53:00
5:53 AM,53.1,51.1,93,30.09,10.0,Calm,Calm,-,N/A,,Clear,0,2013-07-25 10:53:00
6:53 AM,57.9,54.0,87,30.09,10.0,Calm,Calm,-,N/A,,Clear,0,2013-07-25 11:53:00
7:53 AM,63.0,55.0,75,30.11,10.0,West,3.5,-,N/A,,Clear,270,2013-07-25 12:53:00
8:53 AM,66.9,55.0,66,30.13,10.0,West,5.8,-,N/A,,Clear,260,2013-07-25 13:53:00
9:53 AM,71.1,53.1,53,30.11,10.0,Calm,Calm,-,N/A,,Clear,0,2013-07-25 14:53:00
10:53 AM,71.1,53.1,53,30.12,10.0,Calm,Calm,-,N/A,,Clear,0,2013-07-25 15:53:00
11:53 AM,73.9,53.1,48,30.12,10.0,SSE,4.6,-,N/A,,Scattered Clouds,150,2013-07-25 16:53:00
12:53 PM,75.9,52.0,43,30.12,10.0,NW,4.6,-,N/A,,Scattered Clouds,320,2013-07-25 17:53:00
1:53 PM,77.0,50.0,39,30.11,10.0,Variable,5.8,-,N/A,,Partly Cloudy,0,2013-07-25 18:53:00
2:53 PM,77.0,51.1,40,30.10,10.0,NW,8.1,-,N/A,,Mostly Cloudy,320,2013-07-25 19:53:00
3:53 PM,77.0,54.0,45,30.08,10.0,Calm,Calm,-,N/A,,Clear,0,2013-07-25 20:53:00
4:53 PM,75.9,53.1,45,30.07,10.0,Calm,Calm,-,N/A,,Clear,0,2013-07-25 21:53:00
5:53 PM,78.1,53.1,42,30.07,10.0,Variable,3.5,-,N/A,,Clear,0,2013-07-25 22:53:00
6:53 PM,73.9,57.0,55,30.07,10.0,ESE,3.5,-,N/A,,Clear,120,2013-07-25 23:53:00
7:53 PM,72.0,55.0,55,30.06,10.0,SSE,3.5,-,N/A,,Clear,160,2013-07-26 00:53:00
8:53 PM,70.0,57.0,63,30.06,10.0,South,3.5,-,N/A,,Clear,170,2013-07-26 01:53:00
9:53 PM,68.0,57.0,68,30.08,10.0,Calm,Calm,-,N/A,,Clear,0,2013-07-26 02:53:00
10:53 PM,66.0,55.9,70,30.09,10.0,Calm,Calm,-,N/A,,Clear,0,2013-07-26 03:53:00
11:53 PM,64.9,55.0,70,30.07,10.0,South,3.5,-,N/A,,Clear,180,2013-07-26 04:53:00